createdAt,value
2018-06-24T03:18:00.000Z,99099
2018-06-24T03:23:00.000Z,99084
2018-06-24T03:28:00.000Z,99086
2018-06-24T03:33:00.000Z,99088
2018-06-24T03:38:00.000Z,99086
2018-06-24T03:44:00.000Z,99094
2018-06-24T03:49:00.000Z,99097
2018-06-24T03:54:00.000Z,99090
2018-06-24T03:59:00.000Z,99092
2018-06-24T04:04:00.000Z,99099
2018-06-24T04:09:00.000Z,99104
2018-06-24T04:14:00.000Z,99103
2018-06-24T04:19:00.000Z,99099
2018-06-24T04:24:00.000Z,99112
2018-06-24T04:29:00.000Z,99114
2018-06-24T04:34:00.000Z,99114
2018-06-24T04:39:00.000Z,99119
2018-06-24T04:44:00.000Z,99122
2018-06-24T04:49:00.000Z,99116
2018-06-24T04:54:00.000Z,99116
2018-06-24T04:59:00.000Z,99121
2018-06-24T05:04:00.000Z,99132
2018-06-24T05:09:00.000Z,99132
2018-06-24T05:14:00.000Z,99132
2018-06-24T05:19:00.000Z,99138
2018-06-24T05:24:00.000Z,99125
2018-06-24T05:29:00.000Z,99121
2018-06-24T05:34:00.000Z,99116
2018-06-24T05:39:00.000Z,99130
2018-06-24T05:44:00.000Z,99135
2018-06-24T05:49:00.000Z,99126
2018-06-24T05:54:00.000Z,99122
2018-06-24T05:59:00.000Z,99132
2018-06-24T06:04:00.000Z,99130
2018-06-24T06:09:00.000Z,99132
2018-06-24T06:14:00.000Z,99129
2018-06-24T06:19:00.000Z,99143
2018-06-24T06:24:00.000Z,99142
2018-06-24T06:29:00.000Z,99143
2018-06-24T06:34:00.000Z,99151
2018-06-24T06:39:00.000Z,99152
2018-06-24T06:44:00.000Z,99144
2018-06-24T06:49:00.000Z,99145
2018-06-24T06:54:00.000Z,99145
2018-06-24T06:59:00.000Z,99136
2018-06-24T07:04:00.000Z,99124
2018-06-24T07:09:00.000Z,99135
2018-06-24T07:14:00.000Z,99141
2018-06-24T07:19:00.000Z,99137
2018-06-24T07:24:00.000Z,99126
2018-06-24T07:29:00.000Z,99121
2018-06-24T07:34:00.000Z,99123
2018-06-24T07:39:00.000Z,99132
2018-06-24T07:44:00.000Z,99132
2018-06-24T07:49:00.000Z,99129
2018-06-24T07:54:00.000Z,99124
2018-06-24T07:59:00.000Z,99129
2018-06-24T08:04:00.000Z,99124
2018-06-24T08:09:00.000Z,99121
2018-06-24T08:14:00.000Z,99121
2018-06-24T08:19:00.000Z,99124
2018-06-24T08:24:00.000Z,99131
2018-06-24T08:29:00.000Z,99120
2018-06-24T08:34:00.000Z,99133
2018-06-24T08:39:00.000Z,99128
2018-06-24T08:44:00.000Z,99121
2018-06-24T08:49:00.000Z,99121
2018-06-24T08:54:00.000Z,99136
2018-06-24T08:59:00.000Z,99136
2018-06-24T09:04:00.000Z,99122
2018-06-24T09:09:00.000Z,99127
2018-06-24T09:14:00.000Z,99137
2018-06-24T09:19:00.000Z,99135
2018-06-24T09:24:00.000Z,99131
2018-06-24T09:29:00.000Z,99131
2018-06-24T09:34:00.000Z,99138
2018-06-24T09:39:00.000Z,99131
2018-06-24T09:44:00.000Z,99130
2018-06-24T09:49:00.000Z,99126
2018-06-24T09:54:00.000Z,99125
2018-06-24T10:00:00.000Z,99112
2018-06-24T10:05:00.000Z,99105
2018-06-24T10:10:00.000Z,99111
2018-06-24T10:15:00.000Z,99102
2018-06-24T10:20:00.000Z,99080
2018-06-24T10:25:00.000Z,99077
2018-06-24T10:30:00.000Z,99080
2018-06-24T10:35:00.000Z,99079
2018-06-24T10:40:00.000Z,99073
2018-06-24T10:45:00.000Z,99072
2018-06-24T10:50:00.000Z,99083
2018-06-24T10:55:00.000Z,99093
2018-06-24T11:00:00.000Z,99084
2018-06-24T11:05:00.000Z,99075
2018-06-24T11:10:00.000Z,99076
2018-06-24T11:15:00.000Z,99079
2018-06-24T11:20:00.000Z,99079
2018-06-24T11:25:00.000Z,99068
2018-06-24T11:30:00.000Z,99075
2018-06-24T11:35:00.000Z,99061
2018-06-24T11:40:00.000Z,99063
2018-06-24T11:45:00.000Z,99052
2018-06-24T11:50:00.000Z,99040
2018-06-24T11:55:00.000Z,99050
2018-06-24T12:00:00.000Z,99044
2018-06-24T12:05:00.000Z,99043
2018-06-24T12:10:00.000Z,99020
2018-06-24T12:15:00.000Z,99014
2018-06-24T12:20:00.000Z,99010
2018-06-24T12:25:00.000Z,99002
2018-06-24T12:30:00.000Z,98996
2018-06-24T12:35:00.000Z,98996
2018-06-24T12:40:00.000Z,99001
2018-06-24T12:45:00.000Z,98990
2018-06-24T12:50:00.000Z,98984
2018-06-24T12:55:00.000Z,98987
2018-06-24T13:00:00.000Z,98982
2018-06-24T13:05:00.000Z,98964
2018-06-24T13:10:00.000Z,98963
2018-06-24T13:15:00.000Z,98961
2018-06-24T13:20:00.000Z,98970
2018-06-24T13:25:00.000Z,98966
2018-06-24T13:30:00.000Z,98970
2018-06-24T13:35:00.000Z,98960
2018-06-24T13:40:00.000Z,98962
2018-06-24T13:45:00.000Z,98953
2018-06-24T13:50:00.000Z,98958
2018-06-24T13:55:00.000Z,98963
2018-06-24T14:00:00.000Z,98949
2018-06-24T14:05:00.000Z,98965
2018-06-24T14:10:00.000Z,98972
2018-06-24T14:15:00.000Z,98957
2018-06-24T14:20:00.000Z,98950
2018-06-24T14:25:00.000Z,98942
2018-06-24T14:30:00.000Z,98957
2018-06-24T14:35:00.000Z,98960
2018-06-24T14:40:00.000Z,98945
2018-06-24T14:45:00.000Z,98950
2018-06-24T14:50:00.000Z,98938
2018-06-24T14:55:00.000Z,98933
2018-06-24T15:00:00.000Z,98925
2018-06-24T15:05:00.000Z,98926
2018-06-24T15:10:00.000Z,98935
2018-06-24T15:15:00.000Z,98921
2018-06-24T15:20:00.000Z,98919
2018-06-24T15:25:00.000Z,98925
2018-06-24T15:30:00.000Z,98912
2018-06-24T15:35:00.000Z,98902
2018-06-24T15:40:00.000Z,98899
2018-06-24T15:45:00.000Z,98906
2018-06-24T15:50:00.000Z,98913
2018-06-24T15:56:00.000Z,98902
2018-06-24T16:01:00.000Z,98907
2018-06-24T16:06:00.000Z,98904
2018-06-24T16:11:00.000Z,98896
2018-06-24T16:16:00.000Z,98903
2018-06-24T16:21:00.000Z,98903
2018-06-24T16:26:00.000Z,98901
2018-06-24T16:31:00.000Z,98903
2018-06-24T16:36:00.000Z,98889
2018-06-24T16:41:00.000Z,98887
2018-06-24T16:46:00.000Z,98896
2018-06-24T16:51:00.000Z,98893
2018-06-24T16:56:00.000Z,98888
2018-06-24T17:01:00.000Z,98888
2018-06-24T17:06:00.000Z,98885
2018-06-24T17:11:00.000Z,98886
2018-06-24T17:16:00.000Z,98889
2018-06-24T17:21:00.000Z,98892
2018-06-24T17:26:00.000Z,98895
2018-06-24T17:31:00.000Z,98890
2018-06-24T17:36:00.000Z,98887
2018-06-24T17:41:00.000Z,98894
2018-06-24T17:46:00.000Z,98890
2018-06-24T17:51:00.000Z,98891
2018-06-24T17:56:00.000Z,98891
2018-06-24T18:01:00.000Z,98893
2018-06-24T18:06:00.000Z,98884
2018-06-24T18:11:00.000Z,98884
2018-06-24T18:16:00.000Z,98889
2018-06-24T18:21:00.000Z,98897
2018-06-24T18:26:00.000Z,98893
2018-06-24T18:31:00.000Z,98892
2018-06-24T18:36:00.000Z,98895
2018-06-24T18:41:00.000Z,98894
2018-06-24T18:46:00.000Z,98894
2018-06-24T18:51:00.000Z,98890
2018-06-24T18:56:00.000Z,98886
2018-06-24T19:01:00.000Z,98901
2018-06-24T19:06:00.000Z,98899
2018-06-24T19:11:00.000Z,98905
2018-06-24T19:16:00.000Z,98901
2018-06-24T19:21:00.000Z,98900
2018-06-24T19:26:00.000Z,98907
2018-06-24T19:31:00.000Z,98911
2018-06-24T19:36:00.000Z,98922
2018-06-24T19:41:00.000Z,98929
2018-06-24T19:46:00.000Z,98931
2018-06-24T19:51:00.000Z,98924
2018-06-24T19:56:00.000Z,98931
2018-06-24T20:01:00.000Z,98936
2018-06-24T20:06:00.000Z,98939
2018-06-24T20:11:00.000Z,98951
2018-06-24T20:16:00.000Z,98959
2018-06-24T20:21:00.000Z,98950
2018-06-24T20:26:00.000Z,98956
2018-06-24T20:31:00.000Z,98960
2018-06-24T20:36:00.000Z,98968
2018-06-24T20:41:00.000Z,98975
2018-06-24T20:46:00.000Z,98966
2018-06-24T20:51:00.000Z,98969
2018-06-24T20:56:00.000Z,98970
2018-06-24T21:01:00.000Z,98976
2018-06-24T21:06:00.000Z,98962
2018-06-24T21:11:00.000Z,98978
2018-06-24T21:16:00.000Z,98973
2018-06-24T21:21:00.000Z,98981
2018-06-24T21:26:00.000Z,98992
2018-06-24T21:31:00.000Z,98993
2018-06-24T21:36:00.000Z,98989
2018-06-24T21:41:00.000Z,98993
2018-06-24T21:46:00.000Z,98997
2018-06-24T21:51:00.000Z,98991
2018-06-24T21:56:00.000Z,98989
2018-06-24T22:02:00.000Z,98995
2018-06-24T22:07:00.000Z,98996
2018-06-24T22:12:00.000Z,98988
2018-06-24T22:17:00.000Z,98980
2018-06-24T22:22:00.000Z,98993
2018-06-24T22:27:00.000Z,98989
2018-06-24T22:32:00.000Z,98998
2018-06-24T22:37:00.000Z,98997
2018-06-24T22:42:00.000Z,99002
2018-06-24T22:47:00.000Z,98994
2018-06-24T22:52:00.000Z,98997
2018-06-24T22:57:00.000Z,99005
2018-06-24T23:02:00.000Z,98997
2018-06-24T23:07:00.000Z,99009
2018-06-24T23:12:00.000Z,99012
2018-06-24T23:17:00.000Z,98995
2018-06-24T23:22:00.000Z,98995
2018-06-24T23:27:00.000Z,98989
2018-06-24T23:32:00.000Z,98989
2018-06-24T23:37:00.000Z,98997
2018-06-24T23:42:00.000Z,98991
2018-06-24T23:47:00.000Z,98991
2018-06-24T23:52:00.000Z,98991
2018-06-24T23:57:00.000Z,99000
